Terminal Aerodrome Forecast
Issued by NWS

Home | Current Version | Previous Version | Text Only | Print | Product List | Glossary Off
Versions: 1 2 3 4 5 6 7 8 9 10 11 12 13 14 15 16 17 18 19 20 21 22 23 24 25 26 27 28 29 30 31 32 33 34 35 36 37 38 39 40 41

282
FTUS43 KGRB 040525
TAFRHI
TAF
KRHI 040525Z 0406/0506 30009KT P6SM -SHSN SCT025 BKN035
     FM041000 27004KT P6SM SCT030 BKN250
     FM041500 21004KT P6SM SCT035 BKN070
     FM042100 19005KT 3SM -SN BR OVC020
      TEMPO 0421/0501 1 1/2SM -SN BR BKN010
     FM050300 28005KT P6SM SCT012 BKN025=

USA.gov is the U.S. government's official web portal to all federal, state and local government web resources and services.